sensor_id;sensor_type;location;lat;lon;timestamp;temperature;humidity
12504;DHT22;6316;48.118;-1.690;2023-03-01T01:41:42;0.80;99.90
12504;DHT22;6316;48.118;-1.690;2023-03-01T01:44:27;0.80;99.90
12504;DHT22;6316;48.118;-1.690;2023-03-01T01:49:41;0.80;99.90
12504;DHT22;6316;48.118;-1.690;2023-03-01T01:52:16;0.80;99.90
12504;DHT22;6316;48.118;-1.690;2023-03-01T01:57:18;0.70;99.90
12504;DHT22;6316;48.118;-1.690;2023-03-01T01:59:49;0.70;99.90
12504;DHT22;6316;48.118;-1.690;2023-03-01T02:02:15;0.70;99.90
12504;DHT22;6316;48.118;-1.690;2023-03-01T02:04:42;0.70;99.90
12504;DHT22;6316;48.118;-1.690;2023-03-01T02:07:15;0.70;99.90
12504;DHT22;6316;48.118;-1.690;2023-03-01T02:09:43;0.70;99.90
12504;DHT22;6316;48.118;-1.690;2023-03-01T02:12:10;0.60;99.90
12504;DHT22;6316;48.118;-1.690;2023-03-01T02:14:36;0.60;99.90
12504;DHT22;6316;48.118;-1.690;2023-03-01T02:17:02;0.60;99.90
12504;DHT22;6316;48.118;-1.690;2023-03-01T02:19:38;0.60;99.90
12504;DHT22;6316;48.118;-1.690;2023-03-01T02:22:15;0.60;99.90
12504;DHT22;6316;48.118;-1.690;2023-03-01T02:24:52;0.60;99.90
12504;DHT22;6316;48.118;-1.690;2023-03-01T02:27:25;0.60;99.90
12504;DHT22;6316;48.118;-1.690;2023-03-01T02:29:53;0.60;99.90
12504;DHT22;6316;48.118;-1.690;2023-03-01T02:32:19;0.50;99.90
12504;DHT22;6316;48.118;-1.690;2023-03-01T02:34:53;0.50;99.90
12504;DHT22;6316;48.118;-1.690;2023-03-01T02:37:19;0.50;99.90
12504;DHT22;6316;48.118;-1.690;2023-03-01T02:39:54;0.50;99.90
12504;DHT22;6316;48.118;-1.690;2023-03-01T02:42:28;0.50;99.90
12504;DHT22;6316;48.118;-1.690;2023-03-01T02:44:56;0.50;99.90
12504;DHT22;6316;48.118;-1.690;2023-03-01T02:47:21;0.50;99.90
12504;DHT22;6316;48.118;-1.690;2023-03-01T02:49:47;0.40;99.90
12504;DHT22;6316;48.118;-1.690;2023-03-01T02:55:17;0.40;99.90
12504;DHT22;6316;48.118;-1.690;2023-03-01T02:57:45;0.40;99.90
12504;DHT22;6316;48.118;-1.690;2023-03-01T03:00:13;0.40;99.90
12504;DHT22;6316;48.118;-1.690;2023-03-01T03:02:45;0.40;99.90
12504;DHT22;6316;48.118;-1.690;2023-03-01T03:05:15;0.40;99.90
12504;DHT22;6316;48.118;-1.690;2023-03-01T03:07:43;0.40;99.90
12504;DHT22;6316;48.118;-1.690;2023-03-01T03:10:13;0.30;99.90
12504;DHT22;6316;48.118;-1.690;2023-03-01T03:12:39;0.30;99.90
12504;DHT22;6316;48.118;-1.690;2023-03-01T03:15:06;0.30;99.90
12504;DHT22;6316;48.118;-1.690;2023-03-01T03:17:36;0.30;99.90
12504;DHT22;6316;48.118;-1.690;2023-03-01T03:20:03;0.30;99.90
12504;DHT22;6316;48.118;-1.690;2023-03-01T03:22:30;0.30;99.90
12504;DHT22;6316;48.118;-1.690;2023-03-01T03:24:56;0.30;99.90
12504;DHT22;6316;48.118;-1.690;2023-03-01T03:27:22;0.30;99.90
12504;DHT22;6316;48.118;-1.690;2023-03-01T03:29:47;0.30;99.90
12504;DHT22;6316;48.118;-1.690;2023-03-01T03:32:13;0.30;99.90
12504;DHT22;6316;48.118;-1.690;2023-03-01T03:34:39;0.30;99.90
12504;DHT22;6316;48.118;-1.690;2023-03-01T03:37:04;0.30;99.90
12504;DHT22;6316;48.118;-1.690;2023-03-01T03:39:50;0.20;99.90
12504;DHT22;6316;48.118;-1.690;2023-03-01T03:42:20;0.20;99.90
12504;DHT22;6316;48.118;-1.690;2023-03-01T03:44:47;0.20;99.90
12504;DHT22;6316;48.118;-1.690;2023-03-01T03:47:13;0.20;99.90
12504;DHT22;6316;48.118;-1.690;2023-03-01T03:49:38;0.20;99.90
12504;DHT22;6316;48.118;-1.690;2023-03-01T03:52:04;0.20;99.90
12504;DHT22;6316;48.118;-1.690;2023-03-01T03:54:29;0.20;99.90
12504;DHT22;6316;48.118;-1.690;2023-03-01T03:56:55;0.20;99.90
12504;DHT22;6316;48.118;-1.690;2023-03-01T03:59:21;0.10;99.90
12504;DHT22;6316;48.118;-1.690;2023-03-01T04:01:46;0.10;99.90
12504;DHT22;6316;48.118;-1.690;2023-03-01T04:04:12;0.10;99.90
12504;DHT22;6316;48.118;-1.690;2023-03-01T04:06:38;0.10;99.90
12504;DHT22;6316;48.118;-1.690;2023-03-01T04:09:04;0.20;99.90
12504;DHT22;6316;48.118;-1.690;2023-03-01T04:11:30;0.10;99.90
12504;DHT22;6316;48.118;-1.690;2023-03-01T04:13:57;0.10;99.90
12504;DHT22;6316;48.118;-1.690;2023-03-01T04:16:24;0.10;99.90
12504;DHT22;6316;48.118;-1.690;2023-03-01T04:18:50;0.10;99.90
12504;DHT22;6316;48.118;-1.690;2023-03-01T04:21:17;0.10;99.90
12504;DHT22;6316;48.118;-1.690;2023-03-01T04:23:45;0.10;99.90
12504;DHT22;6316;48.118;-1.690;2023-03-01T04:26:11;0.10;99.90
12504;DHT22;6316;48.118;-1.690;2023-03-01T04:28:39;0.10;99.90
12504;DHT22;6316;48.118;-1.690;2023-03-01T04:31:14;0.10;99.90
12504;DHT22;6316;48.118;-1.690;2023-03-01T04:33:42;0.10;99.90
12504;DHT22;6316;48.118;-1.690;2023-03-01T04:36:09;0.10;99.90
12504;DHT22;6316;48.118;-1.690;2023-03-01T04:38:37;0.00;99.90
12504;DHT22;6316;48.118;-1.690;2023-03-01T04:41:08;0.00;99.90
12504;DHT22;6316;48.118;-1.690;2023-03-01T04:43:34;0.00;99.90
12504;DHT22;6316;48.118;-1.690;2023-03-01T04:46:05;0.00;99.90
12504;DHT22;6316;48.118;-1.690;2023-03-01T04:48:33;0.00;99.90
12504;DHT22;6316;48.118;-1.690;2023-03-01T04:51:00;0.00;99.90
12504;DHT22;6316;48.118;-1.690;2023-03-01T04:53:26;0.00;99.90
12504;DHT22;6316;48.118;-1.690;2023-03-01T04:55:54;0.00;99.90
12504;DHT22;6316;48.118;-1.690;2023-03-01T04:58:20;-0.10;99.90
12504;DHT22;6316;48.118;-1.690;2023-03-01T05:00:45;-0.10;99.90
12504;DHT22;6316;48.118;-1.690;2023-03-01T05:03:11;-0.10;99.90
12504;DHT22;6316;48.118;-1.690;2023-03-01T05:05:38;-0.10;99.90
12504;DHT22;6316;48.118;-1.690;2023-03-01T05:08:07;0.00;99.90
12504;DHT22;6316;48.118;-1.690;2023-03-01T05:10:35;-0.10;99.90
12504;DHT22;6316;48.118;-1.690;2023-03-01T05:13:01;-0.10;99.90
12504;DHT22;6316;48.118;-1.690;2023-03-01T05:15:29;-0.10;99.90
12504;DHT22;6316;48.118;-1.690;2023-03-01T05:17:56;-0.10;99.90
12504;DHT22;6316;48.118;-1.690;2023-03-01T05:20:26;-0.10;99.90
12504;DHT22;6316;48.118;-1.690;2023-03-01T05:22:55;0.00;99.90
12504;DHT22;6316;48.118;-1.690;2023-03-01T05:25:21;0.00;99.90
12504;DHT22;6316;48.118;-1.690;2023-03-01T05:27:47;0.00;99.90
12504;DHT22;6316;48.118;-1.690;2023-03-01T05:30:14;0.00;99.90
12504;DHT22;6316;48.118;-1.690;2023-03-01T05:32:48;0.00;99.90
12504;DHT22;6316;48.118;-1.690;2023-03-01T05:35:16;0.00;99.90
12504;DHT22;6316;48.118;-1.690;2023-03-01T05:37:44;0.00;99.90
12504;DHT22;6316;48.118;-1.690;2023-03-01T05:40:12;0.00;99.90
12504;DHT22;6316;48.118;-1.690;2023-03-01T05:42:52;0.00;99.90
12504;DHT22;6316;48.118;-1.690;2023-03-01T05:45:19;0.00;99.90
12504;DHT22;6316;48.118;-1.690;2023-03-01T05:47:47;0.00;99.90
12504;DHT22;6316;48.118;-1.690;2023-03-01T05:52:49;0.00;99.90
12504;DHT22;6316;48.118;-1.690;2023-03-01T05:55:17;0.00;99.90
12504;DHT22;6316;48.118;-1.690;2023-03-01T05:57:43;0.00;99.90
12504;DHT22;6316;48.118;-1.690;2023-03-01T06:00:10;0.00;99.90
12504;DHT22;6316;48.118;-1.690;2023-03-01T06:02:36;0.00;99.90
12504;DHT22;6316;48.118;-1.690;2023-03-01T06:05:01;0.00;99.90
12504;DHT22;6316;48.118;-1.690;2023-03-01T06:07:27;0.00;99.90
12504;DHT22;6316;48.118;-1.690;2023-03-01T06:09:53;0.00;99.90
12504;DHT22;6316;48.118;-1.690;2023-03-01T06:12:19;0.00;99.90
12504;DHT22;6316;48.118;-1.690;2023-03-01T06:14:46;0.10;99.90
12504;DHT22;6316;48.118;-1.690;2023-03-01T06:17:13;0.00;99.90
12504;DHT22;6316;48.118;-1.690;2023-03-01T06:19:38;0.00;99.90
12504;DHT22;6316;48.118;-1.690;2023-03-01T06:22:04;0.00;99.90
12504;DHT22;6316;48.118;-1.690;2023-03-01T06:24:29;0.00;99.90
12504;DHT22;6316;48.118;-1.690;2023-03-01T06:26:55;0.00;99.90
12504;DHT22;6316;48.118;-1.690;2023-03-01T06:29:22;0.00;99.90
12504;DHT22;6316;48.118;-1.690;2023-03-01T06:31:48;0.00;99.90
12504;DHT22;6316;48.118;-1.690;2023-03-01T06:34:14;0.00;99.90
12504;DHT22;6316;48.118;-1.690;2023-03-01T06:36:40;0.00;99.90
12504;DHT22;6316;48.118;-1.690;2023-03-01T06:39:06;0.00;99.90
12504;DHT22;6316;48.118;-1.690;2023-03-01T06:41:32;0.00;99.90
12504;DHT22;6316;48.118;-1.690;2023-03-01T06:43:59;0.00;99.90
12504;DHT22;6316;48.118;-1.690;2023-03-01T06:46:25;0.00;99.90
12504;DHT22;6316;48.118;-1.690;2023-03-01T06:48:50;0.00;99.90
12504;DHT22;6316;48.118;-1.690;2023-03-01T06:51:16;0.00;99.90
12504;DHT22;6316;48.118;-1.690;2023-03-01T06:53:42;-0.10;99.90
12504;DHT22;6316;48.118;-1.690;2023-03-01T06:56:07;0.00;99.90
12504;DHT22;6316;48.118;-1.690;2023-03-01T06:58:33;0.00;99.90
12504;DHT22;6316;48.118;-1.690;2023-03-01T07:00:59;-0.10;99.90
12504;DHT22;6316;48.118;-1.690;2023-03-01T07:03:24;0.00;99.90
12504;DHT22;6316;48.118;-1.690;2023-03-01T07:05:50;-0.10;99.90
12504;DHT22;6316;48.118;-1.690;2023-03-01T07:08:19;0.00;99.90
12504;DHT22;6316;48.118;-1.690;2023-03-01T07:10:45;-0.10;99.90
12504;DHT22;6316;48.118;-1.690;2023-03-01T07:13:11;0.00;99.90
12504;DHT22;6316;48.118;-1.690;2023-03-01T07:15:36;0.10;99.90
12504;DHT22;6316;48.118;-1.690;2023-03-01T07:18:02;0.00;99.90
12504;DHT22;6316;48.118;-1.690;2023-03-01T07:20:28;0.20;99.90
12504;DHT22;6316;48.118;-1.690;2023-03-01T07:22:55;0.80;99.90
12504;DHT22;6316;48.118;-1.690;2023-03-01T07:25:26;1.50;99.90
12504;DHT22;6316;48.118;-1.690;2023-03-01T07:27:52;2.10;99.90
12504;DHT22;6316;48.118;-1.690;2023-03-01T07:30:19;2.80;99.90
12504;DHT22;6316;48.118;-1.690;2023-03-01T07:32:45;3.40;99.90
12504;DHT22;6316;48.118;-1.690;2023-03-01T07:35:11;3.90;99.90
12504;DHT22;6316;48.118;-1.690;2023-03-01T07:37:36;4.30;99.90
12504;DHT22;6316;48.118;-1.690;2023-03-01T07:40:02;4.70;99.90
12504;DHT22;6316;48.118;-1.690;2023-03-01T07:42:28;5.10;99.90
12504;DHT22;6316;48.118;-1.690;2023-03-01T07:44:54;5.40;99.90
12504;DHT22;6316;48.118;-1.690;2023-03-01T07:47:19;5.80;99.90
12504;DHT22;6316;48.118;-1.690;2023-03-01T07:49:45;6.10;99.90
12504;DHT22;6316;48.118;-1.690;2023-03-01T07:52:11;6.30;99.90
12504;DHT22;6316;48.118;-1.690;2023-03-01T07:54:38;6.40;99.90
12504;DHT22;6316;48.118;-1.690;2023-03-01T07:57:03;6.50;99.90
12504;DHT22;6316;48.118;-1.690;2023-03-01T07:59:29;6.60;99.90
12504;DHT22;6316;48.118;-1.690;2023-03-01T08:01:56;6.70;99.90
12504;DHT22;6316;48.118;-1.690;2023-03-01T08:04:22;6.60;99.90
12504;DHT22;6316;48.118;-1.690;2023-03-01T08:06:50;6.50;99.90
12504;DHT22;6316;48.118;-1.690;2023-03-01T08:09:16;6.40;99.90
12504;DHT22;6316;48.118;-1.690;2023-03-01T08:11:42;6.30;99.90
12504;DHT22;6316;48.118;-1.690;2023-03-01T08:14:07;6.10;99.90
12504;DHT22;6316;48.118;-1.690;2023-03-01T08:16:33;5.90;99.90
12504;DHT22;6316;48.118;-1.690;2023-03-01T08:19:11;5.60;99.90
12504;DHT22;6316;48.118;-1.690;2023-03-01T08:21:37;5.30;99.90
12504;DHT22;6316;48.118;-1.690;2023-03-01T08:24:04;5.00;99.90
12504;DHT22;6316;48.118;-1.690;2023-03-01T08:26:31;4.70;99.90
12504;DHT22;6316;48.118;-1.690;2023-03-01T08:28:57;4.50;99.90
12504;DHT22;6316;48.118;-1.690;2023-03-01T08:31:24;4.20;99.90
12504;DHT22;6316;48.118;-1.690;2023-03-01T08:33:51;4.00;99.90
12504;DHT22;6316;48.118;-1.690;2023-03-01T08:36:24;3.70;99.90
12504;DHT22;6316;48.118;-1.690;2023-03-01T08:38:50;3.50;99.90
12504;DHT22;6316;48.118;-1.690;2023-03-01T08:41:16;3.30;99.90
12504;DHT22;6316;48.118;-1.690;2023-03-01T08:43:42;3.20;99.90
12504;DHT22;6316;48.118;-1.690;2023-03-01T08:46:08;3.00;99.90
12504;DHT22;6316;48.118;-1.690;2023-03-01T08:48:35;2.90;99.90
12504;DHT22;6316;48.118;-1.690;2023-03-01T08:51:15;2.90;99.90
12504;DHT22;6316;48.118;-1.690;2023-03-01T08:53:41;2.80;99.90
12504;DHT22;6316;48.118;-1.690;2023-03-01T08:56:08;2.70;99.90
12504;DHT22;6316;48.118;-1.690;2023-03-01T08:58:34;2.70;99.90
12504;DHT22;6316;48.118;-1.690;2023-03-01T09:01:00;2.70;99.90
12504;DHT22;6316;48.118;-1.690;2023-03-01T09:03:26;2.70;99.90
12504;DHT22;6316;48.118;-1.690;2023-03-01T09:05:52;2.70;99.90
12504;DHT22;6316;48.118;-1.690;2023-03-01T09:08:19;2.70;99.90
12504;DHT22;6316;48.118;-1.690;2023-03-01T09:10:46;2.70;99.90
12504;DHT22;6316;48.118;-1.690;2023-03-01T09:13:12;2.70;99.90
12504;DHT22;6316;48.118;-1.690;2023-03-01T09:15:38;2.80;99.90
12504;DHT22;6316;48.118;-1.690;2023-03-01T09:18:04;2.80;99.90
12504;DHT22;6316;48.118;-1.690;2023-03-01T09:20:31;2.80;99.90
12504;DHT22;6316;48.118;-1.690;2023-03-01T09:22:57;2.90;99.90
12504;DHT22;6316;48.118;-1.690;2023-03-01T09:25:23;2.90;99.90
12504;DHT22;6316;48.118;-1.690;2023-03-01T09:27:53;2.90;99.90
12504;DHT22;6316;48.118;-1.690;2023-03-01T09:30:20;3.00;99.90
12504;DHT22;6316;48.118;-1.690;2023-03-01T09:32:45;3.10;99.90
12504;DHT22;6316;48.118;-1.690;2023-03-01T09:35:11;3.10;99.90
12504;DHT22;6316;48.118;-1.690;2023-03-01T09:37:38;3.20;99.90
12504;DHT22;6316;48.118;-1.690;2023-03-01T09:40:13;3.20;99.90
12504;DHT22;6316;48.118;-1.690;2023-03-01T09:42:58;3.30;99.90
12504;DHT22;6316;48.118;-1.690;2023-03-01T09:45:41;3.30;99.90
12504;DHT22;6316;48.118;-1.690;2023-03-01T09:48:28;3.40;99.90
12504;DHT22;6316;48.118;-1.690;2023-03-01T09:50:57;3.40;99.90
12504;DHT22;6316;48.118;-1.690;2023-03-01T09:53:31;3.40;99.90
12504;DHT22;6316;48.118;-1.690;2023-03-01T09:56:34;3.50;99.90
12504;DHT22;6316;48.118;-1.690;2023-03-01T10:02:21;3.60;99.90
12504;DHT22;6316;48.118;-1.690;2023-03-01T10:04:58;3.60;99.90
12504;DHT22;6316;48.118;-1.690;2023-03-01T10:10:45;3.70;99.90
12504;DHT22;6316;48.118;-1.690;2023-03-01T10:15:54;3.80;99.90
12504;DHT22;6316;48.118;-1.690;2023-03-01T10:18:27;3.80;99.90
12504;DHT22;6316;48.118;-1.690;2023-03-01T10:21:03;3.90;99.90
12504;DHT22;6316;48.118;-1.690;2023-03-01T10:23:34;3.90;99.90
12504;DHT22;6316;48.118;-1.690;2023-03-01T10:29:07;4.00;99.90
12504;DHT22;6316;48.118;-1.690;2023-03-01T10:31:43;4.00;99.90
12504;DHT22;6316;48.118;-1.690;2023-03-01T10:34:19;4.10;99.90
12504;DHT22;6316;48.118;-1.690;2023-03-01T10:36:50;4.10;99.90
12504;DHT22;6316;48.118;-1.690;2023-03-01T10:39:22;4.10;99.90
12504;DHT22;6316;48.118;-1.690;2023-03-01T10:42:09;4.20;99.90
12504;DHT22;6316;48.118;-1.690;2023-03-01T10:44:45;4.20;99.90
12504;DHT22;6316;48.118;-1.690;2023-03-01T10:47:18;4.30;99.90
12504;DHT22;6316;48.118;-1.690;2023-03-01T10:52:29;4.40;99.90
12504;DHT22;6316;48.118;-1.690;2023-03-01T10:55:01;4.40;99.90
12504;DHT22;6316;48.118;-1.690;2023-03-01T10:57:34;4.50;99.90
12504;DHT22;6316;48.118;-1.690;2023-03-01T11:00:28;4.50;99.90
12504;DHT22;6316;48.118;-1.690;2023-03-01T11:03:12;4.50;99.90
12504;DHT22;6316;48.118;-1.690;2023-03-01T11:08:41;4.60;99.90
12504;DHT22;6316;48.118;-1.690;2023-03-01T11:14:00;4.70;99.90
12504;DHT22;6316;48.118;-1.690;2023-03-01T11:16:37;4.80;99.90
12504;DHT22;6316;48.118;-1.690;2023-03-01T11:21:53;4.90;99.90
12504;DHT22;6316;48.118;-1.690;2023-03-01T11:24:37;4.90;99.90
12504;DHT22;6316;48.118;-1.690;2023-03-01T11:27:17;5.00;99.90
12504;DHT22;6316;48.118;-1.690;2023-03-01T11:29:46;5.00;99.90
12504;DHT22;6316;48.118;-1.690;2023-03-01T11:32:16;5.10;99.90
12504;DHT22;6316;48.118;-1.690;2023-03-01T11:34:56;5.10;99.90
12504;DHT22;6316;48.118;-1.690;2023-03-01T11:41:00;5.20;99.90
12504;DHT22;6316;48.118;-1.690;2023-03-01T11:43:54;5.30;99.90
12504;DHT22;6316;48.118;-1.690;2023-03-01T11:52:08;5.50;99.90
12504;DHT22;6316;48.118;-1.690;2023-03-01T11:57:14;5.60;99.90
12504;DHT22;6316;48.118;-1.690;2023-03-01T12:41:04;6.50;99.90
12504;DHT22;6316;48.118;-1.690;2023-03-01T12:47:17;6.60;99.90
12504;DHT22;6316;48.118;-1.690;2023-03-01T12:49:22;6.60;99.90
12504;DHT22;6316;48.118;-1.690;2023-03-01T12:51:59;6.60;99.90
12504;DHT22;6316;48.118;-1.690;2023-03-01T12:54:29;6.70;99.90
12504;DHT22;6316;48.118;-1.690;2023-03-01T12:56:57;6.70;99.90
12504;DHT22;6316;48.118;-1.690;2023-03-01T13:02:50;6.70;99.90
12504;DHT22;6316;48.118;-1.690;2023-03-01T13:08:20;6.80;99.90
12504;DHT22;6316;48.118;-1.690;2023-03-01T13:10:51;6.90;99.90
12504;DHT22;6316;48.118;-1.690;2023-03-01T13:13:24;6.90;99.90
12504;DHT22;6316;48.118;-1.690;2023-03-01T13:15:51;7.00;99.90
12504;DHT22;6316;48.118;-1.690;2023-03-01T13:20:56;7.10;99.90
12504;DHT22;6316;48.118;-1.690;2023-03-01T13:26:04;7.20;99.90
12504;DHT22;6316;48.118;-1.690;2023-03-01T13:28:40;7.20;99.90
12504;DHT22;6316;48.118;-1.690;2023-03-01T13:31:08;7.20;99.90
12504;DHT22;6316;48.118;-1.690;2023-03-01T13:33:48;7.20;99.90
12504;DHT22;6316;48.118;-1.690;2023-03-01T13:44:32;7.30;99.90
12504;DHT22;6316;48.118;-1.690;2023-03-01T13:47:15;7.40;99.90
12504;DHT22;6316;48.118;-1.690;2023-03-01T13:49:55;7.40;99.90
12504;DHT22;6316;48.118;-1.690;2023-03-01T13:52:44;7.40;99.90
12504;DHT22;6316;48.118;-1.690;2023-03-01T13:57:45;7.50;99.90
12504;DHT22;6316;48.118;-1.690;2023-03-01T14:00:31;7.50;99.90
12504;DHT22;6316;48.118;-1.690;2023-03-01T14:03:17;7.60;99.90
12504;DHT22;6316;48.118;-1.690;2023-03-01T14:06:05;7.60;99.90
12504;DHT22;6316;48.118;-1.690;2023-03-01T14:08:36;7.70;99.90
12504;DHT22;6316;48.118;-1.690;2023-03-01T14:19:33;7.80;99.90
12504;DHT22;6316;48.118;-1.690;2023-03-01T14:24:46;7.90;99.90
12504;DHT22;6316;48.118;-1.690;2023-03-01T14:27:13;7.90;99.90
12504;DHT22;6316;48.118;-1.690;2023-03-01T14:29:40;7.90;99.90
12504;DHT22;6316;48.118;-1.690;2023-03-01T14:32:18;7.90;99.90
12504;DHT22;6316;48.118;-1.690;2023-03-01T14:34:47;7.90;99.90
12504;DHT22;6316;48.118;-1.690;2023-03-01T14:37:20;7.90;99.90
12504;DHT22;6316;48.118;-1.690;2023-03-01T14:39:46;7.90;99.90
12504;DHT22;6316;48.118;-1.690;2023-03-01T14:42:13;8.00;99.90
12504;DHT22;6316;48.118;-1.690;2023-03-01T14:44:43;7.90;99.90
12504;DHT22;6316;48.118;-1.690;2023-03-01T14:47:14;7.90;99.90
12504;DHT22;6316;48.118;-1.690;2023-03-01T14:49:41;7.90;99.90
12504;DHT22;6316;48.118;-1.690;2023-03-01T14:52:22;7.90;99.90
12504;DHT22;6316;48.118;-1.690;2023-03-01T14:54:50;7.90;99.90
12504;DHT22;6316;48.118;-1.690;2023-03-01T14:57:22;7.80;99.90
12504;DHT22;6316;48.118;-1.690;2023-03-01T14:59:49;7.80;99.90
12504;DHT22;6316;48.118;-1.690;2023-03-01T15:02:21;7.80;99.90
12504;DHT22;6316;48.118;-1.690;2023-03-01T15:04:50;7.80;99.90
12504;DHT22;6316;48.118;-1.690;2023-03-01T15:07:17;7.80;99.90
12504;DHT22;6316;48.118;-1.690;2023-03-01T15:09:43;7.80;99.90
12504;DHT22;6316;48.118;-1.690;2023-03-01T15:14:55;7.70;99.90
12504;DHT22;6316;48.118;-1.690;2023-03-01T15:19:53;7.80;99.90
12504;DHT22;6316;48.118;-1.690;2023-03-01T15:22:19;7.80;99.90
12504;DHT22;6316;48.118;-1.690;2023-03-01T15:24:49;7.80;99.90
12504;DHT22;6316;48.118;-1.690;2023-03-01T15:27:20;7.80;99.90
12504;DHT22;6316;48.118;-1.690;2023-03-01T15:29:58;7.80;99.90
12504;DHT22;6316;48.118;-1.690;2023-03-01T15:32:33;7.80;99.90
12504;DHT22;6316;48.118;-1.690;2023-03-01T15:35:00;7.90;99.90
12504;DHT22;6316;48.118;-1.690;2023-03-01T15:42:46;7.90;99.90
12504;DHT22;6316;48.118;-1.690;2023-03-01T15:47:56;7.90;99.90
12504;DHT22;6316;48.118;-1.690;2023-03-01T15:50:28;7.90;99.90
12504;DHT22;6316;48.118;-1.690;2023-03-01T15:52:57;8.00;99.90
12504;DHT22;6316;48.118;-1.690;2023-03-01T15:55:28;8.00;99.90
12504;DHT22;6316;48.118;-1.690;2023-03-01T15:58:14;8.00;99.90
12504;DHT22;6316;48.118;-1.690;2023-03-01T16:00:42;8.00;99.90
12504;DHT22;6316;48.118;-1.690;2023-03-01T16:03:10;8.00;99.90
12504;DHT22;6316;48.118;-1.690;2023-03-01T16:05:37;8.00;99.90
12504;DHT22;6316;48.118;-1.690;2023-03-01T16:08:05;8.00;99.90
12504;DHT22;6316;48.118;-1.690;2023-03-01T16:10:32;8.00;99.90
12504;DHT22;6316;48.118;-1.690;2023-03-01T16:12:58;7.90;99.90
12504;DHT22;6316;48.118;-1.690;2023-03-01T16:15:26;7.90;99.90
12504;DHT22;6316;48.118;-1.690;2023-03-01T16:17:54;7.90;99.90
12504;DHT22;6316;48.118;-1.690;2023-03-01T16:20:21;7.90;99.90
12504;DHT22;6316;48.118;-1.690;2023-03-01T16:22:46;7.80;99.90
12504;DHT22;6316;48.118;-1.690;2023-03-01T16:25:14;7.80;99.90
12504;DHT22;6316;48.118;-1.690;2023-03-01T16:27:53;7.70;99.90
12504;DHT22;6316;48.118;-1.690;2023-03-01T16:30:21;7.70;99.90
12504;DHT22;6316;48.118;-1.690;2023-03-01T16:32:47;7.70;99.90
12504;DHT22;6316;48.118;-1.690;2023-03-01T16:35:16;7.70;99.90
12504;DHT22;6316;48.118;-1.690;2023-03-01T16:37:42;7.70;99.90
12504;DHT22;6316;48.118;-1.690;2023-03-01T16:40:17;7.60;99.90
12504;DHT22;6316;48.118;-1.690;2023-03-01T16:42:44;7.60;99.90
12504;DHT22;6316;48.118;-1.690;2023-03-01T16:45:10;7.50;99.90
12504;DHT22;6316;48.118;-1.690;2023-03-01T16:47:36;7.50;99.90
12504;DHT22;6316;48.118;-1.690;2023-03-01T16:50:02;7.50;99.90
12504;DHT22;6316;48.118;-1.690;2023-03-01T16:52:28;7.40;99.90
12504;DHT22;6316;48.118;-1.690;2023-03-01T16:54:53;7.40;99.90
12504;DHT22;6316;48.118;-1.690;2023-03-01T16:57:19;7.40;99.90
12504;DHT22;6316;48.118;-1.690;2023-03-01T16:59:45;7.30;99.90
12504;DHT22;6316;48.118;-1.690;2023-03-01T17:02:12;7.30;99.90
12504;DHT22;6316;48.118;-1.690;2023-03-01T17:04:41;7.30;99.90
12504;DHT22;6316;48.118;-1.690;2023-03-01T17:07:07;7.20;99.90
12504;DHT22;6316;48.118;-1.690;2023-03-01T17:09:36;7.20;99.90
12504;DHT22;6316;48.118;-1.690;2023-03-01T17:12:05;7.20;99.90
12504;DHT22;6316;48.118;-1.690;2023-03-01T17:14:31;7.10;99.90
12504;DHT22;6316;48.118;-1.690;2023-03-01T17:16:57;7.10;99.90
12504;DHT22;6316;48.118;-1.690;2023-03-01T17:19:22;7.00;99.90
12504;DHT22;6316;48.118;-1.690;2023-03-01T17:21:48;7.00;99.90
12504;DHT22;6316;48.118;-1.690;2023-03-01T17:24:14;6.90;99.90
12504;DHT22;6316;48.118;-1.690;2023-03-01T17:26:39;6.90;99.90
12504;DHT22;6316;48.118;-1.690;2023-03-01T17:29:05;6.80;99.90
12504;DHT22;6316;48.118;-1.690;2023-03-01T17:31:32;6.80;99.90
12504;DHT22;6316;48.118;-1.690;2023-03-01T17:33:58;6.80;99.90
12504;DHT22;6316;48.118;-1.690;2023-03-01T17:36:24;6.70;99.90
12504;DHT22;6316;48.118;-1.690;2023-03-01T17:38:50;6.60;99.90
12504;DHT22;6316;48.118;-1.690;2023-03-01T17:41:17;6.60;99.90
12504;DHT22;6316;48.118;-1.690;2023-03-01T17:43:44;6.60;99.90
12504;DHT22;6316;48.118;-1.690;2023-03-01T17:46:10;6.50;99.90
12504;DHT22;6316;48.118;-1.690;2023-03-01T17:48:36;6.50;99.90
12504;DHT22;6316;48.118;-1.690;2023-03-01T17:51:06;6.50;99.90
12504;DHT22;6316;48.118;-1.690;2023-03-01T17:53:32;6.40;99.90
12504;DHT22;6316;48.118;-1.690;2023-03-01T17:56:00;6.40;99.90
12504;DHT22;6316;48.118;-1.690;2023-03-01T17:58:26;6.30;99.90
12504;DHT22;6316;48.118;-1.690;2023-03-01T18:00:52;6.30;99.90
12504;DHT22;6316;48.118;-1.690;2023-03-01T18:03:17;6.30;99.90
12504;DHT22;6316;48.118;-1.690;2023-03-01T18:05:43;6.30;99.90
12504;DHT22;6316;48.118;-1.690;2023-03-01T18:08:09;6.30;99.90
12504;DHT22;6316;48.118;-1.690;2023-03-01T18:10:34;6.20;99.90
12504;DHT22;6316;48.118;-1.690;2023-03-01T18:13:02;6.20;99.90
12504;DHT22;6316;48.118;-1.690;2023-03-01T18:15:28;6.10;99.90
12504;DHT22;6316;48.118;-1.690;2023-03-01T18:17:54;6.10;99.90
12504;DHT22;6316;48.118;-1.690;2023-03-01T18:20:20;6.10;99.90
12504;DHT22;6316;48.118;-1.690;2023-03-01T18:22:46;6.10;99.90
12504;DHT22;6316;48.118;-1.690;2023-03-01T18:25:13;6.00;99.90
12504;DHT22;6316;48.118;-1.690;2023-03-01T18:27:38;6.00;99.90
12504;DHT22;6316;48.118;-1.690;2023-03-01T18:30:06;6.00;99.90
12504;DHT22;6316;48.118;-1.690;2023-03-01T18:32:32;5.90;99.90
12504;DHT22;6316;48.118;-1.690;2023-03-01T18:34:58;5.90;99.90
12504;DHT22;6316;48.118;-1.690;2023-03-01T18:37:23;5.90;99.90
12504;DHT22;6316;48.118;-1.690;2023-03-01T18:39:50;5.80;99.90
12504;DHT22;6316;48.118;-1.690;2023-03-01T18:42:17;5.80;99.90
12504;DHT22;6316;48.118;-1.690;2023-03-01T18:44:45;5.80;99.90
12504;DHT22;6316;48.118;-1.690;2023-03-01T18:47:11;5.70;99.90
12504;DHT22;6316;48.118;-1.690;2023-03-01T18:49:36;5.70;99.90
12504;DHT22;6316;48.118;-1.690;2023-03-01T18:52:02;5.70;99.90
12504;DHT22;6316;48.118;-1.690;2023-03-01T18:54:28;5.70;99.90
12504;DHT22;6316;48.118;-1.690;2023-03-01T18:56:54;5.60;99.90
12504;DHT22;6316;48.118;-1.690;2023-03-01T18:59:20;5.60;99.90
12504;DHT22;6316;48.118;-1.690;2023-03-01T19:01:45;5.60;99.90
12504;DHT22;6316;48.118;-1.690;2023-03-01T19:04:11;5.60;99.90
12504;DHT22;6316;48.118;-1.690;2023-03-01T19:06:37;5.50;99.90
12504;DHT22;6316;48.118;-1.690;2023-03-01T19:09:04;5.50;99.90
12504;DHT22;6316;48.118;-1.690;2023-03-01T20:22:17;4.80;99.90
12504;DHT22;6316;48.118;-1.690;2023-03-01T20:24:43;4.80;99.90
12504;DHT22;6316;48.118;-1.690;2023-03-01T20:27:09;4.70;99.90
12504;DHT22;6316;48.118;-1.690;2023-03-01T20:29:35;4.80;99.90
12504;DHT22;6316;48.118;-1.690;2023-03-01T20:32:00;4.70;99.90
12504;DHT22;6316;48.118;-1.690;2023-03-01T20:34:26;4.80;99.90
12504;DHT22;6316;48.118;-1.690;2023-03-01T20:36:52;4.70;99.90
12504;DHT22;6316;48.118;-1.690;2023-03-01T20:39:18;4.70;99.90
12504;DHT22;6316;48.118;-1.690;2023-03-01T20:41:43;4.60;99.90
12504;DHT22;6316;48.118;-1.690;2023-03-01T20:44:09;4.70;99.90
12504;DHT22;6316;48.118;-1.690;2023-03-01T20:46:35;4.60;99.90
12504;DHT22;6316;48.118;-1.690;2023-03-01T20:49:02;4.60;99.90
12504;DHT22;6316;48.118;-1.690;2023-03-01T20:51:28;4.50;99.90
12504;DHT22;6316;48.118;-1.690;2023-03-01T20:53:54;4.50;99.90
12504;DHT22;6316;48.118;-1.690;2023-03-01T20:56:21;4.50;99.90
12504;DHT22;6316;48.118;-1.690;2023-03-01T20:58:47;4.40;99.90
12504;DHT22;6316;48.118;-1.690;2023-03-01T21:01:18;4.40;99.90
12504;DHT22;6316;48.118;-1.690;2023-03-01T22:21:33;3.50;99.90